sensor_id;sensor_type;location;lat;lon;timestamp;pressure;altitude;pressure_sealevel;temperature;humidity
61757;BME280;57225;61.460;24.060;2022-08-18T00:00:36;100248.16;;;18.04;100.00
61757;BME280;57225;61.460;24.060;2022-08-18T00:03:21;100238.91;;;18.04;100.00
61757;BME280;57225;61.460;24.060;2022-08-18T00:06:06;100235.44;;;18.00;100.00
61757;BME280;57225;61.460;24.060;2022-08-18T00:08:51;100241.50;;;17.98;100.00
61757;BME280;57225;61.460;24.060;2022-08-18T00:11:39;100244.34;;;17.98;100.00
61757;BME280;57225;61.460;24.060;2022-08-18T00:14:24;100232.16;;;18.01;100.00
61757;BME280;57225;61.460;24.060;2022-08-18T00:17:08;100240.50;;;18.05;100.00
61757;BME280;57225;61.460;24.060;2022-08-18T00:19:53;100239.84;;;18.01;100.00
61757;BME280;57225;61.460;24.060;2022-08-18T00:22:37;100238.91;;;18.04;100.00
61757;BME280;57225;61.460;24.060;2022-08-18T00:25:23;100235.44;;;18.00;100.00
61757;BME280;57225;61.460;24.060;2022-08-18T00:28:07;100240.63;;;18.01;100.00
61757;BME280;57225;61.460;24.060;2022-08-18T00:30:51;100238.25;;;18.00;100.00
61757;BME280;57225;61.460;24.060;2022-08-18T00:33:35;100243.44;;;18.01;100.00
61757;BME280;57225;61.460;24.060;2022-08-18T00:36:20;100241.06;;;18.00;100.00
61757;BME280;57225;61.460;24.060;2022-08-18T00:39:04;100244.56;;;17.91;100.00
61757;BME280;57225;61.460;24.060;2022-08-18T00:41:48;100247.16;;;17.86;100.00
61757;BME280;57225;61.460;24.060;2022-08-18T00:44:33;100245.69;;;17.81;100.00
61757;BME280;57225;61.460;24.060;2022-08-18T00:47:17;100252.69;;;17.89;100.00
61757;BME280;57225;61.460;24.060;2022-08-18T00:50:01;100251.44;;;17.90;100.00
61757;BME280;57225;61.460;24.060;2022-08-18T00:52:51;100253.44;;;17.90;100.00
61757;BME280;57225;61.460;24.060;2022-08-18T00:55:39;100251.09;;;17.88;100.00
61757;BME280;57225;61.460;24.060;2022-08-18T00:58:38;100244.75;;;17.84;100.00
61757;BME280;57225;61.460;24.060;2022-08-18T01:01:26;100250.75;;;17.86;100.00
61757;BME280;57225;61.460;24.060;2022-08-18T01:04:44;100251.09;;;17.88;100.00
61757;BME280;57225;61.460;24.060;2022-08-18T01:07:35;100249.53;;;17.87;100.00
61757;BME280;57225;61.460;24.060;2022-08-18T01:10:22;100244.75;;;17.84;100.00
61757;BME280;57225;61.460;24.060;2022-08-18T01:13:08;100248.50;;;17.81;100.00
61757;BME280;57225;61.460;24.060;2022-08-18T01:15:54;100198.25;;;17.51;100.00
61757;BME280;57225;61.460;24.060;2022-08-18T01:18:38;100260.22;;;17.80;100.00
61757;BME280;57225;61.460;24.060;2022-08-18T01:21:46;100259.88;;;17.78;100.00
61757;BME280;57225;61.460;24.060;2022-08-18T01:24:36;100251.31;;;17.68;100.00
61757;BME280;57225;61.460;24.060;2022-08-18T01:27:41;100259.06;;;17.64;100.00
61757;BME280;57225;61.460;24.060;2022-08-18T01:30:27;100266.41;;;17.62;100.00
61757;BME280;57225;61.460;24.060;2022-08-18T01:33:11;100267.25;;;17.59;100.00
61757;BME280;57225;61.460;24.060;2022-08-18T01:36:00;100264.44;;;17.59;100.00
61757;BME280;57225;61.460;24.060;2022-08-18T01:38:50;100267.38;;;17.55;100.00
61757;BME280;57225;61.460;24.060;2022-08-18T01:41:35;100264.91;;;17.57;100.00
61757;BME280;57225;61.460;24.060;2022-08-18T01:44:19;100265.00;;;17.54;100.00
61757;BME280;57225;61.460;24.060;2022-08-18T01:47:04;100261.16;;;17.48;100.00
61757;BME280;57225;61.460;24.060;2022-08-18T01:49:48;100253.44;;;17.36;100.00
61757;BME280;57225;61.460;24.060;2022-08-18T01:52:33;100269.00;;;17.40;100.00
61757;BME280;57225;61.460;24.060;2022-08-18T01:55:21;100259.75;;;17.40;100.00
61757;BME280;57225;61.460;24.060;2022-08-18T01:58:06;100264.50;;;17.43;100.00
61757;BME280;57225;61.460;24.060;2022-08-18T02:00:50;100267.69;;;17.45;100.00
61757;BME280;57225;61.460;24.060;2022-08-18T02:03:38;100254.38;;;17.45;100.00
61757;BME280;57225;61.460;24.060;2022-08-18T02:06:23;100264.41;;;17.46;100.00
61757;BME280;57225;61.460;24.060;2022-08-18T02:09:07;100261.16;;;17.48;100.00
61757;BME280;57225;61.460;24.060;2022-08-18T02:11:51;100260.69;;;17.49;100.00
61757;BME280;57225;61.460;24.060;2022-08-18T02:14:36;100257.88;;;17.49;100.00
61757;BME280;57225;61.460;24.060;2022-08-18T02:17:20;100257.66;;;17.44;100.00
61757;BME280;57225;61.460;24.060;2022-08-18T02:20:07;100260.13;;;17.42;100.00
61757;BME280;57225;61.460;24.060;2022-08-18T02:22:51;100261.69;;;17.43;100.00
61757;BME280;57225;61.460;24.060;2022-08-18T02:25:36;100267.34;;;17.43;100.00
61757;BME280;57225;61.460;24.060;2022-08-18T02:28:21;100260.56;;;17.40;100.00
61757;BME280;57225;61.460;24.060;2022-08-18T02:31:12;100262.94;;;17.42;100.00
61757;BME280;57225;61.460;24.060;2022-08-18T02:33:57;100262.34;;;17.34;100.00
61757;BME280;57225;61.460;24.060;2022-08-18T02:36:42;100265.28;;;17.31;100.00
61757;BME280;57225;61.460;24.060;2022-08-18T02:39:27;100276.88;;;17.33;100.00
61757;BME280;57225;61.460;24.060;2022-08-18T02:42:11;100262.09;;;17.28;100.00
61757;BME280;57225;61.460;24.060;2022-08-18T02:44:57;100261.50;;;17.21;100.00
61757;BME280;57225;61.460;24.060;2022-08-18T02:47:42;100273.38;;;17.28;100.00
61757;BME280;57225;61.460;24.060;2022-08-18T02:50:27;100268.47;;;17.16;100.00
61757;BME280;57225;61.460;24.060;2022-08-18T02:53:13;100265.16;;;17.05;100.00
61757;BME280;57225;61.460;24.060;2022-08-18T02:56:11;100265.50;;;17.07;100.00
61757;BME280;57225;61.460;24.060;2022-08-18T02:59:15;100269.81;;;17.12;100.00
61757;BME280;57225;61.460;24.060;2022-08-18T03:02:00;100267.78;;;17.12;100.00
61757;BME280;57225;61.460;24.060;2022-08-18T03:04:45;100263.28;;;17.15;100.00
61757;BME280;57225;61.460;24.060;2022-08-18T03:07:30;100266.56;;;17.13;100.00
61757;BME280;57225;61.460;24.060;2022-08-18T03:10:15;100267.31;;;17.14;100.00
61757;BME280;57225;61.460;24.060;2022-08-18T03:12:59;100269.16;;;17.20;100.00
61757;BME280;57225;61.460;24.060;2022-08-18T03:15:43;100276.28;;;17.25;100.00
61757;BME280;57225;61.460;24.060;2022-08-18T03:18:28;100281.81;;;17.28;100.00
61757;BME280;57225;61.460;24.060;2022-08-18T03:21:18;100294.13;;;17.35;100.00
61757;BME280;57225;61.460;24.060;2022-08-18T03:24:05;100294.31;;;17.27;100.00
61757;BME280;57225;61.460;24.060;2022-08-18T03:26:50;100305.03;;;17.33;100.00
61757;BME280;57225;61.460;24.060;2022-08-18T03:29:35;100293.09;;;17.28;100.00
61757;BME280;57225;61.460;24.060;2022-08-18T03:32:19;100292.34;;;17.41;100.00
61757;BME280;57225;61.460;24.060;2022-08-18T03:35:04;100294.88;;;17.51;100.00
61757;BME280;57225;61.460;24.060;2022-08-18T03:37:49;100291.81;;;17.58;100.00
61757;BME280;57225;61.460;24.060;2022-08-18T03:40:33;100290.53;;;17.63;100.00
61757;BME280;57225;61.460;24.060;2022-08-18T03:43:17;100304.06;;;17.68;100.00
61757;BME280;57225;61.460;24.060;2022-08-18T03:46:09;100302.38;;;17.71;100.00
61757;BME280;57225;61.460;24.060;2022-08-18T03:48:56;100304.09;;;17.81;100.00
61757;BME280;57225;61.460;24.060;2022-08-18T03:51:43;100307.84;;;17.90;100.00
61757;BME280;57225;61.460;24.060;2022-08-18T03:54:29;100313.25;;;17.97;100.00
61757;BME280;57225;61.460;24.060;2022-08-18T03:57:17;100312.47;;;18.09;100.00
61757;BME280;57225;61.460;24.060;2022-08-18T04:00:02;100319.38;;;18.21;100.00
61757;BME280;57225;61.460;24.060;2022-08-18T04:02:46;100316.81;;;18.27;100.00
61757;BME280;57225;61.460;24.060;2022-08-18T04:05:31;100325.50;;;18.32;100.00
61757;BME280;57225;61.460;24.060;2022-08-18T04:08:15;100322.66;;;18.45;100.00
61757;BME280;57225;61.460;24.060;2022-08-18T04:10:59;100324.00;;;18.53;100.00
61757;BME280;57225;61.460;24.060;2022-08-18T04:13:43;100327.75;;;18.75;100.00
61757;BME280;57225;61.460;24.060;2022-08-18T04:16:29;100319.47;;;18.94;100.00
61757;BME280;57225;61.460;24.060;2022-08-18T04:19:15;100324.72;;;19.04;100.00
61757;BME280;57225;61.460;24.060;2022-08-18T04:22:01;100329.34;;;19.11;100.00
61757;BME280;57225;61.460;24.060;2022-08-18T04:24:48;100325.03;;;19.19;100.00
61757;BME280;57225;61.460;24.060;2022-08-18T04:27:33;100327.03;;;19.31;100.00
61757;BME280;57225;61.460;24.060;2022-08-18T04:30:17;100331.63;;;19.38;100.00
61757;BME280;57225;61.460;24.060;2022-08-18T04:33:02;100336.38;;;19.53;100.00
61757;BME280;57225;61.460;24.060;2022-08-18T04:35:49;100337.06;;;19.66;100.00
61757;BME280;57225;61.460;24.060;2022-08-18T04:38:33;100341.59;;;19.86;99.76
61757;BME280;57225;61.460;24.060;2022-08-18T04:41:18;100343.59;;;19.98;99.69
61757;BME280;57225;61.460;24.060;2022-08-18T04:44:05;100356.44;;;20.21;98.53
61757;BME280;57225;61.460;24.060;2022-08-18T04:46:52;100359.56;;;20.44;96.89
61757;BME280;57225;61.460;24.060;2022-08-18T04:49:37;100354.25;;;20.96;94.58
61757;BME280;57225;61.460;24.060;2022-08-18T04:52:21;100357.25;;;22.29;86.81
61757;BME280;57225;61.460;24.060;2022-08-18T04:55:25;100371.34;;;23.99;76.51
61757;BME280;57225;61.460;24.060;2022-08-18T04:58:11;100361.44;;;25.23;71.56
61757;BME280;57225;61.460;24.060;2022-08-18T05:01:00;100369.63;;;25.96;67.81
61757;BME280;57225;61.460;24.060;2022-08-18T05:03:44;100364.41;;;26.47;65.37
61757;BME280;57225;61.460;24.060;2022-08-18T05:06:29;100370.34;;;26.43;64.32
61757;BME280;57225;61.460;24.060;2022-08-18T05:09:14;100370.38;;;27.17;62.23
61757;BME280;57225;61.460;24.060;2022-08-18T05:11:58;100376.84;;;27.12;62.08
61757;BME280;57225;61.460;24.060;2022-08-18T05:14:44;100361.94;;;26.65;63.04
61757;BME280;57225;61.460;24.060;2022-08-18T05:17:28;100375.66;;;25.78;65.65
61757;BME280;57225;61.460;24.060;2022-08-18T05:20:13;100364.16;;;24.77;69.71
61757;BME280;57225;61.460;24.060;2022-08-18T05:22:58;100378.13;;;23.87;74.01
61757;BME280;57225;61.460;24.060;2022-08-18T05:25:42;100370.44;;;23.16;77.65
61757;BME280;57225;61.460;24.060;2022-08-18T05:28:26;100366.19;;;22.88;79.21
61757;BME280;57225;61.460;24.060;2022-08-18T05:31:13;100368.47;;;22.65;80.61
61757;BME280;57225;61.460;24.060;2022-08-18T05:33:59;100375.78;;;22.57;81.37
61757;BME280;57225;61.460;24.060;2022-08-18T05:37:11;100369.25;;;22.24;83.64
61757;BME280;57225;61.460;24.060;2022-08-18T05:40:01;100366.63;;;21.93;84.59
61757;BME280;57225;61.460;24.060;2022-08-18T05:42:46;100369.47;;;22.02;85.59
61757;BME280;57225;61.460;24.060;2022-08-18T05:45:31;100379.34;;;22.25;85.02
61757;BME280;57225;61.460;24.060;2022-08-18T05:48:19;100374.41;;;22.43;84.63
61757;BME280;57225;61.460;24.060;2022-08-18T05:51:12;100386.97;;;22.61;83.49
61757;BME280;57225;61.460;24.060;2022-08-18T05:54:02;100389.53;;;22.50;83.49
61757;BME280;57225;61.460;24.060;2022-08-18T05:57:14;100390.63;;;22.52;83.55
61757;BME280;57225;61.460;24.060;2022-08-18T06:00:00;100392.19;;;22.53;83.93
61757;BME280;57225;61.460;24.060;2022-08-18T06:03:04;100408.97;;;22.42;84.61
61757;BME280;57225;61.460;24.060;2022-08-18T06:05:58;100414.97;;;22.35;84.90
61757;BME280;57225;61.460;24.060;2022-08-18T06:08:59;100407.72;;;22.34;85.09
61757;BME280;57225;61.460;24.060;2022-08-18T06:11:45;100419.59;;;22.23;85.74
61757;BME280;57225;61.460;24.060;2022-08-18T06:14:29;100407.63;;;22.19;86.24
61757;BME280;57225;61.460;24.060;2022-08-18T06:20:35;100412.50;;;22.19;87.10
61757;BME280;57225;61.460;24.060;2022-08-18T06:23:38;100418.69;;;21.99;86.55
61757;BME280;57225;61.460;24.060;2022-08-18T06:26:35;100416.63;;;21.99;86.04
61757;BME280;57225;61.460;24.060;2022-08-18T06:29:43;100416.28;;;21.79;87.59
61757;BME280;57225;61.460;24.060;2022-08-18T06:32:38;100417.88;;;21.62;88.86
61757;BME280;57225;61.460;24.060;2022-08-18T06:38:41;100431.13;;;21.74;89.68
61757;BME280;57225;61.460;24.060;2022-08-18T06:41:37;100435.06;;;21.86;88.42
61757;BME280;57225;61.460;24.060;2022-08-18T06:44:52;100430.66;;;22.03;87.15
61757;BME280;57225;61.460;24.060;2022-08-18T06:47:57;100428.56;;;22.22;87.36
61757;BME280;57225;61.460;24.060;2022-08-18T06:50:55;100441.78;;;22.43;86.75
61757;BME280;57225;61.460;24.060;2022-08-18T06:54:02;100426.41;;;22.68;84.59
61757;BME280;57225;61.460;24.060;2022-08-18T06:56:49;100436.28;;;22.91;82.97
61757;BME280;57225;61.460;24.060;2022-08-18T06:59:33;100438.13;;;23.03;83.02
61757;BME280;57225;61.460;24.060;2022-08-18T07:05:29;100440.34;;;22.99;82.01
61757;BME280;57225;61.460;24.060;2022-08-18T07:08:17;100425.91;;;22.78;81.84
61757;BME280;57225;61.460;24.060;2022-08-18T07:11:26;100444.56;;;22.79;82.11
61757;BME280;57225;61.460;24.060;2022-08-18T07:14:12;100438.53;;;22.87;83.41
61757;BME280;57225;61.460;24.060;2022-08-18T07:17:13;100445.38;;;23.04;81.47
61757;BME280;57225;61.460;24.060;2022-08-18T07:20:21;100437.16;;;23.39;81.05
61757;BME280;57225;61.460;24.060;2022-08-18T07:23:07;100440.38;;;23.46;78.24
61757;BME280;57225;61.460;24.060;2022-08-18T07:26:15;100442.38;;;23.64;78.01
61757;BME280;57225;61.460;24.060;2022-08-18T07:29:13;100442.97;;;23.68;77.71
61757;BME280;57225;61.460;24.060;2022-08-18T07:32:00;100439.66;;;23.70;77.84
61757;BME280;57225;61.460;24.060;2022-08-18T07:34:49;100441.50;;;23.73;78.04
61757;BME280;57225;61.460;24.060;2022-08-18T07:41:20;100443.44;;;24.05;76.64
61757;BME280;57225;61.460;24.060;2022-08-18T07:44:19;100450.41;;;24.04;75.83
61757;BME280;57225;61.460;24.060;2022-08-18T07:47:16;100443.16;;;24.18;75.69
61757;BME280;57225;61.460;24.060;2022-08-18T07:50:04;100451.28;;;24.49;74.63
61757;BME280;57225;61.460;24.060;2022-08-18T07:55:48;100457.56;;;24.67;70.97
61757;BME280;57225;61.460;24.060;2022-08-18T07:58:45;100458.75;;;24.90;72.03
61757;BME280;57225;61.460;24.060;2022-08-18T08:01:35;100458.84;;;24.96;70.18
61757;BME280;57225;61.460;24.060;2022-08-18T08:05:52;100458.13;;;24.86;72.24
61757;BME280;57225;61.460;24.060;2022-08-18T08:11:21;100465.41;;;25.16;70.18
61757;BME280;57225;61.460;24.060;2022-08-18T08:14:38;100467.59;;;24.92;69.86
61757;BME280;57225;61.460;24.060;2022-08-18T08:17:33;100470.72;;;24.79;70.20
61757;BME280;57225;61.460;24.060;2022-08-18T08:20:36;100462.47;;;24.67;71.53
61757;BME280;57225;61.460;24.060;2022-08-18T08:26:56;100462.75;;;24.98;69.01
61757;BME280;57225;61.460;24.060;2022-08-18T08:32:50;100467.00;;;24.73;70.00
61757;BME280;57225;61.460;24.060;2022-08-18T08:36:03;100463.28;;;24.97;68.11
61757;BME280;57225;61.460;24.060;2022-08-18T08:38:54;100471.31;;;24.98;68.92
61757;BME280;57225;61.460;24.060;2022-08-18T08:41:49;100475.88;;;24.90;67.11
61757;BME280;57225;61.460;24.060;2022-08-18T08:44:57;100465.72;;;25.39;67.84
61757;BME280;57225;61.460;24.060;2022-08-18T08:48:11;100469.75;;;25.87;65.54
61757;BME280;57225;61.460;24.060;2022-08-18T08:54:16;100466.41;;;25.69;65.14
61757;BME280;57225;61.460;24.060;2022-08-18T08:57:04;100458.16;;;25.56;64.77
61757;BME280;57225;61.460;24.060;2022-08-18T08:59:49;100466.56;;;25.80;66.06
61757;BME280;57225;61.460;24.060;2022-08-18T09:06:13;100466.31;;;26.03;64.82
61757;BME280;57225;61.460;24.060;2022-08-18T09:18:00;100473.75;;;25.95;64.75
61757;BME280;57225;61.460;24.060;2022-08-18T09:21:04;100475.75;;;25.89;63.79
61757;BME280;57225;61.460;24.060;2022-08-18T09:24:25;100462.69;;;25.62;65.58
61757;BME280;57225;61.460;24.060;2022-08-18T09:27:36;100467.53;;;25.77;65.81
61757;BME280;57225;61.460;24.060;2022-08-18T09:30:45;100464.50;;;26.06;66.15
61757;BME280;57225;61.460;24.060;2022-08-18T09:42:32;100469.66;;;27.00;62.74
61757;BME280;57225;61.460;24.060;2022-08-18T09:54:09;100461.56;;;27.35;60.46
61757;BME280;57225;61.460;24.060;2022-08-18T09:57:04;100455.59;;;27.44;60.95
61757;BME280;57225;61.460;24.060;2022-08-18T09:59:53;100461.03;;;27.79;59.15
61757;BME280;57225;61.460;24.060;2022-08-18T10:05:27;100465.97;;;27.84;57.88
61757;BME280;57225;61.460;24.060;2022-08-18T10:11:38;100469.63;;;27.85;58.83
61757;BME280;57225;61.460;24.060;2022-08-18T10:18:20;100474.88;;;27.44;58.60
61757;BME280;57225;61.460;24.060;2022-08-18T10:24:12;100468.09;;;27.41;59.31
61757;BME280;57225;61.460;24.060;2022-08-18T10:26:58;100465.97;;;27.31;59.28
61757;BME280;57225;61.460;24.060;2022-08-18T10:29:46;100457.72;;;27.07;61.16
61757;BME280;57225;61.460;24.060;2022-08-18T10:32:42;100451.78;;;27.16;60.56
61757;BME280;57225;61.460;24.060;2022-08-18T10:38:36;100466.53;;;27.46;59.16
61757;BME280;57225;61.460;24.060;2022-08-18T10:41:27;100465.75;;;27.45;59.37
61757;BME280;57225;61.460;24.060;2022-08-18T10:44:13;100464.84;;;27.59;58.73
61757;BME280;57225;61.460;24.060;2022-08-18T10:46:59;100469.19;;;27.49;58.61
61757;BME280;57225;61.460;24.060;2022-08-18T10:49:48;100467.72;;;27.65;57.58
61757;BME280;57225;61.460;24.060;2022-08-18T11:04:48;100466.94;;;27.65;56.98
61757;BME280;57225;61.460;24.060;2022-08-18T11:07:34;100462.91;;;27.93;56.79
61757;BME280;57225;61.460;24.060;2022-08-18T11:10:32;100471.38;;;28.30;56.84
61757;BME280;57225;61.460;24.060;2022-08-18T11:13:56;100469.53;;;27.63;57.09
61757;BME280;57225;61.460;24.060;2022-08-18T11:19:41;100468.91;;;27.47;59.43
61757;BME280;57225;61.460;24.060;2022-08-18T11:22:30;100475.59;;;27.33;60.05
61757;BME280;57225;61.460;24.060;2022-08-18T11:25:35;100475.59;;;27.33;60.40
61757;BME280;57225;61.460;24.060;2022-08-18T11:28:21;100474.31;;;27.40;60.57
61757;BME280;57225;61.460;24.060;2022-08-18T11:31:07;100475.22;;;27.20;60.63
61757;BME280;57225;61.460;24.060;2022-08-18T11:33:51;100463.06;;;27.25;59.35
61757;BME280;57225;61.460;24.060;2022-08-18T11:36:36;100469.78;;;27.22;59.00
61757;BME280;57225;61.460;24.060;2022-08-18T11:39:20;100465.38;;;26.90;60.47
61757;BME280;57225;61.460;24.060;2022-08-18T11:42:07;100464.13;;;26.96;60.39
61757;BME280;57225;61.460;24.060;2022-08-18T11:45:14;100465.25;;;27.04;61.91
61757;BME280;57225;61.460;24.060;2022-08-18T11:51:00;100462.31;;;27.30;60.78
61757;BME280;57225;61.460;24.060;2022-08-18T11:56:35;100452.94;;;26.93;61.71
61757;BME280;57225;61.460;24.060;2022-08-18T12:02:16;100453.94;;;26.90;62.04
61757;BME280;57225;61.460;24.060;2022-08-18T12:05:01;100454.81;;;27.01;63.01
61757;BME280;57225;61.460;24.060;2022-08-18T12:07:46;100451.84;;;27.70;60.91
61757;BME280;57225;61.460;24.060;2022-08-18T12:10:31;100461.31;;;27.87;59.58
61757;BME280;57225;61.460;24.060;2022-08-18T12:13:23;100458.19;;;27.85;60.86
61757;BME280;57225;61.460;24.060;2022-08-18T12:16:32;100458.34;;;27.65;59.65
61757;BME280;57225;61.460;24.060;2022-08-18T12:19:14;100450.38;;;27.37;60.91
61757;BME280;57225;61.460;24.060;2022-08-18T12:22:00;100444.22;;;27.13;62.50
61757;BME280;57225;61.460;24.060;2022-08-18T12:24:46;100446.94;;;26.91;63.52
61757;BME280;57225;61.460;24.060;2022-08-18T12:27:31;100452.81;;;26.81;64.30
61757;BME280;57225;61.460;24.060;2022-08-18T12:30:15;100453.84;;;26.78;65.42
61757;BME280;57225;61.460;24.060;2022-08-18T12:33:01;100451.38;;;26.66;63.30
61757;BME280;57225;61.460;24.060;2022-08-18T12:35:45;100443.56;;;26.61;63.99
61757;BME280;57225;61.460;24.060;2022-08-18T12:38:33;100447.59;;;26.49;65.62
61757;BME280;57225;61.460;24.060;2022-08-18T12:41:18;100442.66;;;26.49;65.72
61757;BME280;57225;61.460;24.060;2022-08-18T12:44:02;100442.66;;;26.49;66.78
61757;BME280;57225;61.460;24.060;2022-08-18T12:46:47;100436.25;;;26.60;65.57
61757;BME280;57225;61.460;24.060;2022-08-18T12:49:31;100436.97;;;26.80;65.64
61757;BME280;57225;61.460;24.060;2022-08-18T12:52:18;100443.59;;;27.35;63.10
61757;BME280;57225;61.460;24.060;2022-08-18T12:55:03;100435.50;;;27.76;62.17
61757;BME280;57225;61.460;24.060;2022-08-18T12:57:48;100427.31;;;28.28;61.01
61757;BME280;57225;61.460;24.060;2022-08-18T13:00:33;100429.97;;;28.87;58.22
61757;BME280;57225;61.460;24.060;2022-08-18T13:03:17;100419.53;;;28.45;58.75
61757;BME280;57225;61.460;24.060;2022-08-18T13:06:03;100421.25;;;28.04;60.27
61757;BME280;57225;61.460;24.060;2022-08-18T13:08:52;100421.97;;;27.82;61.27
61757;BME280;57225;61.460;24.060;2022-08-18T13:11:37;100422.28;;;27.41;62.62
61757;BME280;57225;61.460;24.060;2022-08-18T13:14:22;100424.09;;;26.96;64.86
61757;BME280;57225;61.460;24.060;2022-08-18T13:17:06;100416.66;;;26.78;65.85
61757;BME280;57225;61.460;24.060;2022-08-18T13:19:51;100408.50;;;26.66;66.49
61757;BME280;57225;61.460;24.060;2022-08-18T13:22:37;100410.03;;;26.61;64.02
61757;BME280;57225;61.460;24.060;2022-08-18T13:25:24;100407.78;;;26.45;65.74
61757;BME280;57225;61.460;24.060;2022-08-18T13:28:10;100409.84;;;26.45;66.49
61757;BME280;57225;61.460;24.060;2022-08-18T13:30:54;100416.03;;;26.37;67.45
61757;BME280;57225;61.460;24.060;2022-08-18T13:33:38;100407.13;;;26.30;67.91
61757;BME280;57225;61.460;24.060;2022-08-18T13:36:27;100408.47;;;26.34;68.45
61757;BME280;57225;61.460;24.060;2022-08-18T13:39:27;100408.13;;;26.27;68.05
61757;BME280;57225;61.460;24.060;2022-08-18T13:42:11;100410.72;;;26.25;68.80
61757;BME280;57225;61.460;24.060;2022-08-18T13:44:59;100397.81;;;26.35;69.39
61757;BME280;57225;61.460;24.060;2022-08-18T13:47:47;100393.09;;;26.32;68.25
61757;BME280;57225;61.460;24.060;2022-08-18T13:50:32;100400.84;;;26.26;69.65
61757;BME280;57225;61.460;24.060;2022-08-18T13:53:17;100403.03;;;26.11;71.05
61757;BME280;57225;61.460;24.060;2022-08-18T13:56:05;100404.41;;;25.95;71.93
61757;BME280;57225;61.460;24.060;2022-08-18T13:58:49;100384.91;;;25.93;71.46
61757;BME280;57225;61.460;24.060;2022-08-18T14:01:35;100381.78;;;25.91;71.86
61757;BME280;57225;61.460;24.060;2022-08-18T14:04:20;100390.84;;;25.90;72.77
61757;BME280;57225;61.460;24.060;2022-08-18T14:07:05;100397.78;;;25.83;73.11
61757;BME280;57225;61.460;24.060;2022-08-18T14:09:51;100394.63;;;25.81;72.62
61757;BME280;57225;61.460;24.060;2022-08-18T14:12:36;100405.22;;;25.75;73.22
61757;BME280;57225;61.460;24.060;2022-08-18T14:15:20;100392.50;;;25.76;73.15
61757;BME280;57225;61.460;24.060;2022-08-18T14:18:06;100387.34;;;25.80;72.93
61757;BME280;57225;61.460;24.060;2022-08-18T14:20:50;100388.66;;;25.79;72.79
61757;BME280;57225;61.460;24.060;2022-08-18T14:23:54;100392.50;;;25.76;72.61
61757;BME280;57225;61.460;24.060;2022-08-18T14:26:56;100398.88;;;25.66;72.53
61757;BME280;57225;61.460;24.060;2022-08-18T14:29:42;100398.91;;;25.51;73.57
61757;BME280;57225;61.460;24.060;2022-08-18T14:32:27;100379.97;;;25.48;74.43
61757;BME280;57225;61.460;24.060;2022-08-18T14:35:13;100365.69;;;25.48;74.78
61757;BME280;57225;61.460;24.060;2022-08-18T14:37:58;100367.81;;;25.33;75.61
61757;BME280;57225;61.460;24.060;2022-08-18T14:40:46;100381.72;;;25.25;76.86
61757;BME280;57225;61.460;24.060;2022-08-18T14:43:30;100383.34;;;25.11;77.42
61757;BME280;57225;61.460;24.060;2022-08-18T14:46:15;100394.19;;;25.07;77.38
61757;BME280;57225;61.460;24.060;2022-08-18T14:48:59;100391.81;;;25.06;78.02
61757;BME280;57225;61.460;24.060;2022-08-18T14:51:44;100391.75;;;25.00;78.39
61757;BME280;57225;61.460;24.060;2022-08-18T14:54:29;100409.88;;;24.97;78.96
61757;BME280;57225;61.460;24.060;2022-08-18T14:57:14;100401.50;;;24.94;79.32
61757;BME280;57225;61.460;24.060;2022-08-18T14:59:58;100397.66;;;24.82;79.98
61757;BME280;57225;61.460;24.060;2022-08-18T15:02:46;100388.09;;;24.85;79.14
61757;BME280;57225;61.460;24.060;2022-08-18T15:05:32;100402.09;;;24.83;80.35
61757;BME280;57225;61.460;24.060;2022-08-18T15:08:17;100386.19;;;24.62;79.38
61757;BME280;57225;61.460;24.060;2022-08-18T15:11:04;100397.59;;;24.62;79.41
61757;BME280;57225;61.460;24.060;2022-08-18T15:13:49;100413.13;;;24.61;79.83
61757;BME280;57225;61.460;24.060;2022-08-18T15:16:34;100424.63;;;24.66;80.32
61757;BME280;57225;61.460;24.060;2022-08-18T15:19:19;100424.53;;;24.61;80.53
61757;BME280;57225;61.460;24.060;2022-08-18T15:22:05;100418.81;;;24.61;80.69
61757;BME280;57225;61.460;24.060;2022-08-18T15:25:08;100422.06;;;24.54;81.21
61757;BME280;57225;61.460;24.060;2022-08-18T15:28:20;100426.91;;;24.48;81.73
61757;BME280;57225;61.460;24.060;2022-08-18T15:31:05;100419.81;;;24.43;83.00
61757;BME280;57225;61.460;24.060;2022-08-18T15:33:49;100405.56;;;24.28;83.29
61757;BME280;57225;61.460;24.060;2022-08-18T15:36:34;100410.59;;;24.33;83.06
61757;BME280;57225;61.460;24.060;2022-08-18T15:39:19;100400.47;;;24.32;82.64
61757;BME280;57225;61.460;24.060;2022-08-18T15:42:09;100403.72;;;24.25;82.97
61757;BME280;57225;61.460;24.060;2022-08-18T15:44:54;100406.81;;;24.13;84.34
61757;BME280;57225;61.460;24.060;2022-08-18T15:47:39;100415.28;;;24.07;84.16
61757;BME280;57225;61.460;24.060;2022-08-18T15:50:24;100414.66;;;24.03;85.10
61757;BME280;57225;61.460;24.060;2022-08-18T15:53:10;100418.97;;;23.98;85.06
61757;BME280;57225;61.460;24.060;2022-08-18T15:55:54;100424.88;;;23.95;84.88
61757;BME280;57225;61.460;24.060;2022-08-18T15:58:39;100433.50;;;23.86;86.36
61757;BME280;57225;61.460;24.060;2022-08-18T16:01:24;100428.41;;;23.90;86.05
61757;BME280;57225;61.460;24.060;2022-08-18T16:04:08;100425.44;;;23.84;86.83
61757;BME280;57225;61.460;24.060;2022-08-18T16:06:52;100422.59;;;23.84;86.44
61757;BME280;57225;61.460;24.060;2022-08-18T16:09:38;100410.13;;;23.82;86.08